sensor_id;sensor_type;location;lat;lon;timestamp;P1;durP1;ratioP1;P2;durP2;ratioP2
62933;SDS011;49038;47.600;19.242;2023-07-22T00:00:40;11.50;;;3.15;;
62933;SDS011;49038;47.600;19.242;2023-07-22T00:03:42;4.18;;;2.87;;
62933;SDS011;49038;47.600;19.242;2023-07-22T00:06:45;6.32;;;2.70;;
62933;SDS011;49038;47.600;19.242;2023-07-22T00:09:47;5.85;;;2.62;;
62933;SDS011;49038;47.600;19.242;2023-07-22T00:12:52;5.90;;;2.35;;
62933;SDS011;49038;47.600;19.242;2023-07-22T00:15:54;4.50;;;2.60;;
62933;SDS011;49038;47.600;19.242;2023-07-22T00:18:57;5.37;;;2.40;;
62933;SDS011;49038;47.600;19.242;2023-07-22T00:22:00;5.93;;;2.22;;
62933;SDS011;49038;47.600;19.242;2023-07-22T00:25:02;4.07;;;2.65;;
62933;SDS011;49038;47.600;19.242;2023-07-22T00:28:05;4.05;;;2.40;;
62933;SDS011;49038;47.600;19.242;2023-07-22T00:31:07;3.58;;;2.28;;
62933;SDS011;49038;47.600;19.242;2023-07-22T00:34:10;3.15;;;2.12;;
62933;SDS011;49038;47.600;19.242;2023-07-22T00:37:12;3.75;;;2.47;;
62933;SDS011;49038;47.600;19.242;2023-07-22T00:40:15;3.35;;;2.50;;
62933;SDS011;49038;47.600;19.242;2023-07-22T00:43:17;2.45;;;2.12;;
62933;SDS011;49038;47.600;19.242;2023-07-22T00:46:20;3.47;;;2.50;;
62933;SDS011;49038;47.600;19.242;2023-07-22T00:49:22;2.65;;;2.00;;
62933;SDS011;49038;47.600;19.242;2023-07-22T00:52:25;5.37;;;2.87;;
62933;SDS011;49038;47.600;19.242;2023-07-22T00:55:27;4.18;;;2.62;;
62933;SDS011;49038;47.600;19.242;2023-07-22T00:58:29;3.12;;;2.22;;
62933;SDS011;49038;47.600;19.242;2023-07-22T01:01:32;3.10;;;2.22;;
62933;SDS011;49038;47.600;19.242;2023-07-22T01:04:34;4.00;;;2.35;;
62933;SDS011;49038;47.600;19.242;2023-07-22T01:07:37;3.08;;;2.40;;
62933;SDS011;49038;47.600;19.242;2023-07-22T01:10:43;6.28;;;2.40;;
62933;SDS011;49038;47.600;19.242;2023-07-22T01:13:45;2.75;;;2.42;;
62933;SDS011;49038;47.600;19.242;2023-07-22T01:16:48;2.87;;;2.17;;
62933;SDS011;49038;47.600;19.242;2023-07-22T01:19:50;4.50;;;2.40;;
62933;SDS011;49038;47.600;19.242;2023-07-22T01:22:53;2.92;;;2.40;;
62933;SDS011;49038;47.600;19.242;2023-07-22T01:25:56;4.97;;;2.78;;
62933;SDS011;49038;47.600;19.242;2023-07-22T01:29:05;6.55;;;2.45;;
62933;SDS011;49038;47.600;19.242;2023-07-22T01:32:08;4.35;;;2.00;;
62933;SDS011;49038;47.600;19.242;2023-07-22T01:35:11;3.42;;;2.33;;
62933;SDS011;49038;47.600;19.242;2023-07-22T01:38:13;4.32;;;2.80;;
62933;SDS011;49038;47.600;19.242;2023-07-22T01:41:15;10.75;;;2.45;;
62933;SDS011;49038;47.600;19.242;2023-07-22T01:44:18;3.78;;;2.70;;
62933;SDS011;49038;47.600;19.242;2023-07-22T01:47:20;3.33;;;2.00;;
62933;SDS011;49038;47.600;19.242;2023-07-22T01:50:23;3.53;;;2.45;;
62933;SDS011;49038;47.600;19.242;2023-07-22T01:53:25;1.92;;;1.75;;
62933;SDS011;49038;47.600;19.242;2023-07-22T01:56:27;2.60;;;2.15;;
62933;SDS011;49038;47.600;19.242;2023-07-22T01:59:30;5.62;;;2.70;;
62933;SDS011;49038;47.600;19.242;2023-07-22T02:02:32;2.92;;;2.62;;
62933;SDS011;49038;47.600;19.242;2023-07-22T02:05:35;5.37;;;2.40;;
62933;SDS011;49038;47.600;19.242;2023-07-22T02:08:37;2.55;;;2.30;;
62933;SDS011;49038;47.600;19.242;2023-07-22T02:11:40;2.87;;;2.17;;
62933;SDS011;49038;47.600;19.242;2023-07-22T02:14:42;3.33;;;2.22;;
62933;SDS011;49038;47.600;19.242;2023-07-22T02:17:45;2.20;;;1.92;;
62933;SDS011;49038;47.600;19.242;2023-07-22T02:20:48;2.92;;;2.50;;
62933;SDS011;49038;47.600;19.242;2023-07-22T02:23:50;3.92;;;2.40;;
62933;SDS011;49038;47.600;19.242;2023-07-22T02:26:52;6.05;;;2.47;;
62933;SDS011;49038;47.600;19.242;2023-07-22T02:29:54;3.53;;;2.87;;
62933;SDS011;49038;47.600;19.242;2023-07-22T02:32:57;3.87;;;2.62;;
62933;SDS011;49038;47.600;19.242;2023-07-22T02:35:59;2.08;;;1.75;;
62933;SDS011;49038;47.600;19.242;2023-07-22T02:39:01;3.15;;;2.00;;
62933;SDS011;49038;47.600;19.242;2023-07-22T02:42:05;6.37;;;2.08;;
62933;SDS011;49038;47.600;19.242;2023-07-22T02:45:07;16.95;;;2.85;;
62933;SDS011;49038;47.600;19.242;2023-07-22T02:48:10;3.08;;;2.08;;
62933;SDS011;49038;47.600;19.242;2023-07-22T02:51:12;3.08;;;2.22;;
62933;SDS011;49038;47.600;19.242;2023-07-22T02:54:15;3.70;;;2.60;;
62933;SDS011;49038;47.600;19.242;2023-07-22T02:57:17;3.97;;;2.85;;
62933;SDS011;49038;47.600;19.242;2023-07-22T03:00:19;3.50;;;2.35;;
62933;SDS011;49038;47.600;19.242;2023-07-22T03:03:28;3.33;;;2.53;;
62933;SDS011;49038;47.600;19.242;2023-07-22T03:06:30;3.70;;;2.62;;
62933;SDS011;49038;47.600;19.242;2023-07-22T03:09:33;8.98;;;2.90;;
62933;SDS011;49038;47.600;19.242;2023-07-22T03:12:35;2.83;;;2.22;;
62933;SDS011;49038;47.600;19.242;2023-07-22T03:15:38;7.75;;;2.55;;
62933;SDS011;49038;47.600;19.242;2023-07-22T03:18:41;4.15;;;2.40;;
62933;SDS011;49038;47.600;19.242;2023-07-22T03:21:45;4.05;;;2.53;;
62933;SDS011;49038;47.600;19.242;2023-07-22T03:24:47;3.50;;;2.50;;
62933;SDS011;49038;47.600;19.242;2023-07-22T03:27:49;3.30;;;2.20;;
62933;SDS011;49038;47.600;19.242;2023-07-22T03:30:52;4.00;;;2.87;;
62933;SDS011;49038;47.600;19.242;2023-07-22T03:33:54;3.67;;;2.60;;
62933;SDS011;49038;47.600;19.242;2023-07-22T03:36:57;4.22;;;2.53;;
62933;SDS011;49038;47.600;19.242;2023-07-22T03:40:00;6.65;;;4.43;;
62933;SDS011;49038;47.600;19.242;2023-07-22T03:43:02;3.58;;;2.60;;
62933;SDS011;49038;47.600;19.242;2023-07-22T03:46:05;7.03;;;2.80;;
62933;SDS011;49038;47.600;19.242;2023-07-22T03:49:07;2.85;;;2.45;;
62933;SDS011;49038;47.600;19.242;2023-07-22T03:52:09;3.50;;;2.10;;
62933;SDS011;49038;47.600;19.242;2023-07-22T03:55:16;4.25;;;2.85;;
62933;SDS011;49038;47.600;19.242;2023-07-22T03:58:18;5.15;;;3.50;;
62933;SDS011;49038;47.600;19.242;2023-07-22T04:01:20;12.63;;;3.22;;
62933;SDS011;49038;47.600;19.242;2023-07-22T04:04:23;5.20;;;2.85;;
62933;SDS011;49038;47.600;19.242;2023-07-22T04:07:25;2.67;;;2.17;;
62933;SDS011;49038;47.600;19.242;2023-07-22T04:10:27;4.90;;;2.90;;
62933;SDS011;49038;47.600;19.242;2023-07-22T04:13:30;3.22;;;2.47;;
62933;SDS011;49038;47.600;19.242;2023-07-22T04:16:32;4.87;;;2.35;;
62933;SDS011;49038;47.600;19.242;2023-07-22T04:19:34;3.40;;;2.22;;
62933;SDS011;49038;47.600;19.242;2023-07-22T04:22:37;2.78;;;2.10;;
62933;SDS011;49038;47.600;19.242;2023-07-22T04:25:40;4.55;;;2.47;;
62933;SDS011;49038;47.600;19.242;2023-07-22T04:28:42;5.28;;;2.45;;
62933;SDS011;49038;47.600;19.242;2023-07-22T04:31:45;2.78;;;2.30;;
62933;SDS011;49038;47.600;19.242;2023-07-22T04:34:47;3.30;;;2.10;;
62933;SDS011;49038;47.600;19.242;2023-07-22T04:37:49;3.78;;;2.60;;
62933;SDS011;49038;47.600;19.242;2023-07-22T04:40:52;3.53;;;2.30;;
62933;SDS011;49038;47.600;19.242;2023-07-22T04:43:54;3.72;;;1.75;;
62933;SDS011;49038;47.600;19.242;2023-07-22T04:46:56;3.25;;;2.37;;
62933;SDS011;49038;47.600;19.242;2023-07-22T04:49:59;3.10;;;2.30;;
62933;SDS011;49038;47.600;19.242;2023-07-22T04:53:01;3.58;;;2.22;;
62933;SDS011;49038;47.600;19.242;2023-07-22T04:56:04;2.62;;;2.12;;
62933;SDS011;49038;47.600;19.242;2023-07-22T04:59:06;3.53;;;2.30;;
62933;SDS011;49038;47.600;19.242;2023-07-22T05:02:08;2.60;;;1.92;;
62933;SDS011;49038;47.600;19.242;2023-07-22T05:05:14;2.92;;;2.25;;
62933;SDS011;49038;47.600;19.242;2023-07-22T05:08:17;3.12;;;2.30;;
62933;SDS011;49038;47.600;19.242;2023-07-22T05:11:19;3.28;;;2.30;;
62933;SDS011;49038;47.600;19.242;2023-07-22T05:14:22;6.47;;;2.10;;
62933;SDS011;49038;47.600;19.242;2023-07-22T05:17:25;3.30;;;2.40;;
62933;SDS011;49038;47.600;19.242;2023-07-22T05:20:27;2.75;;;2.35;;
62933;SDS011;49038;47.600;19.242;2023-07-22T05:23:30;2.97;;;2.17;;
62933;SDS011;49038;47.600;19.242;2023-07-22T05:26:32;3.35;;;2.10;;
62933;SDS011;49038;47.600;19.242;2023-07-22T05:29:35;2.92;;;2.25;;
62933;SDS011;49038;47.600;19.242;2023-07-22T05:32:37;3.42;;;2.40;;
62933;SDS011;49038;47.600;19.242;2023-07-22T05:35:39;4.07;;;2.80;;
62933;SDS011;49038;47.600;19.242;2023-07-22T05:38:42;3.67;;;2.83;;
62933;SDS011;49038;47.600;19.242;2023-07-22T05:41:44;4.32;;;2.30;;
62933;SDS011;49038;47.600;19.242;2023-07-22T05:44:47;3.67;;;2.80;;
62933;SDS011;49038;47.600;19.242;2023-07-22T05:47:50;4.25;;;2.70;;
62933;SDS011;49038;47.600;19.242;2023-07-22T05:50:52;3.45;;;2.42;;
62933;SDS011;49038;47.600;19.242;2023-07-22T05:53:55;3.45;;;2.70;;
62933;SDS011;49038;47.600;19.242;2023-07-22T05:56:57;5.25;;;2.60;;
62933;SDS011;49038;47.600;19.242;2023-07-22T05:59:59;3.72;;;2.95;;
62933;SDS011;49038;47.600;19.242;2023-07-22T06:03:05;5.30;;;3.25;;
62933;SDS011;49038;47.600;19.242;2023-07-22T06:06:07;4.55;;;3.35;;
62933;SDS011;49038;47.600;19.242;2023-07-22T06:09:09;4.80;;;3.08;;
62933;SDS011;49038;47.600;19.242;2023-07-22T06:12:12;4.50;;;2.92;;
62933;SDS011;49038;47.600;19.242;2023-07-22T06:15:15;4.57;;;2.85;;
62933;SDS011;49038;47.600;19.242;2023-07-22T06:18:17;3.72;;;2.72;;
62933;SDS011;49038;47.600;19.242;2023-07-22T06:21:20;5.37;;;3.37;;
62933;SDS011;49038;47.600;19.242;2023-07-22T06:24:22;3.53;;;2.83;;
62933;SDS011;49038;47.600;19.242;2023-07-22T06:27:24;5.40;;;3.08;;
62933;SDS011;49038;47.600;19.242;2023-07-22T06:30:27;3.12;;;2.80;;
62933;SDS011;49038;47.600;19.242;2023-07-22T06:33:29;3.90;;;2.78;;
62933;SDS011;49038;47.600;19.242;2023-07-22T06:36:31;3.58;;;3.08;;
62933;SDS011;49038;47.600;19.242;2023-07-22T06:39:34;4.10;;;2.60;;
62933;SDS011;49038;47.600;19.242;2023-07-22T06:42:36;3.55;;;2.42;;
62933;SDS011;49038;47.600;19.242;2023-07-22T06:45:38;5.25;;;2.60;;
62933;SDS011;49038;47.600;19.242;2023-07-22T06:48:41;4.57;;;3.20;;
62933;SDS011;49038;47.600;19.242;2023-07-22T06:51:43;3.25;;;2.67;;
62933;SDS011;49038;47.600;19.242;2023-07-22T06:54:45;3.80;;;2.55;;
62933;SDS011;49038;47.600;19.242;2023-07-22T06:57:48;5.85;;;2.75;;
62933;SDS011;49038;47.600;19.242;2023-07-22T07:00:54;3.60;;;2.70;;
62933;SDS011;49038;47.600;19.242;2023-07-22T07:03:57;4.95;;;3.40;;
62933;SDS011;49038;47.600;19.242;2023-07-22T07:07:00;6.15;;;2.80;;
62933;SDS011;49038;47.600;19.242;2023-07-22T07:10:02;4.70;;;2.85;;
62933;SDS011;49038;47.600;19.242;2023-07-22T07:13:04;4.60;;;2.92;;
62933;SDS011;49038;47.600;19.242;2023-07-22T07:16:20;3.95;;;2.25;;
62933;SDS011;49038;47.600;19.242;2023-07-22T07:19:27;3.55;;;2.95;;
62933;SDS011;49038;47.600;19.242;2023-07-22T07:22:30;5.93;;;3.42;;
62933;SDS011;49038;47.600;19.242;2023-07-22T07:25:32;4.05;;;2.58;;
62933;SDS011;49038;47.600;19.242;2023-07-22T07:28:34;3.92;;;2.08;;
62933;SDS011;49038;47.600;19.242;2023-07-22T07:31:37;3.72;;;2.80;;
62933;SDS011;49038;47.600;19.242;2023-07-22T07:34:40;2.40;;;1.95;;
62933;SDS011;49038;47.600;19.242;2023-07-22T07:37:42;3.97;;;2.17;;
62933;SDS011;49038;47.600;19.242;2023-07-22T07:40:44;2.72;;;2.30;;
62933;SDS011;49038;47.600;19.242;2023-07-22T07:43:47;5.20;;;2.30;;
62933;SDS011;49038;47.600;19.242;2023-07-22T07:46:49;3.58;;;2.50;;
62933;SDS011;49038;47.600;19.242;2023-07-22T07:49:51;3.50;;;1.92;;
62933;SDS011;49038;47.600;19.242;2023-07-22T07:52:54;3.60;;;2.10;;
62933;SDS011;49038;47.600;19.242;2023-07-22T07:55:56;2.22;;;1.73;;
62933;SDS011;49038;47.600;19.242;2023-07-22T07:58:58;3.35;;;2.10;;
62933;SDS011;49038;47.600;19.242;2023-07-22T08:02:01;2.95;;;2.08;;
62933;SDS011;49038;47.600;19.242;2023-07-22T08:05:04;5.10;;;2.12;;
62933;SDS011;49038;47.600;19.242;2023-07-22T08:08:07;3.00;;;2.08;;
62933;SDS011;49038;47.600;19.242;2023-07-22T08:11:13;2.80;;;2.05;;
62933;SDS011;49038;47.600;19.242;2023-07-22T08:14:16;2.10;;;1.65;;
62933;SDS011;49038;47.600;19.242;2023-07-22T08:17:20;7.43;;;2.15;;
62933;SDS011;49038;47.600;19.242;2023-07-22T08:20:22;3.83;;;2.08;;
62933;SDS011;49038;47.600;19.242;2023-07-22T08:23:24;2.20;;;1.90;;
62933;SDS011;49038;47.600;19.242;2023-07-22T08:26:27;3.37;;;1.70;;
62933;SDS011;49038;47.600;19.242;2023-07-22T08:29:30;5.07;;;2.95;;
62933;SDS011;49038;47.600;19.242;2023-07-22T08:32:33;2.58;;;2.12;;
62933;SDS011;49038;47.600;19.242;2023-07-22T08:35:35;2.53;;;2.20;;
62933;SDS011;49038;47.600;19.242;2023-07-22T08:38:38;2.12;;;1.70;;
62933;SDS011;49038;47.600;19.242;2023-07-22T08:41:40;4.22;;;2.30;;
62933;SDS011;49038;47.600;19.242;2023-07-22T08:44:51;2.83;;;2.12;;
62933;SDS011;49038;47.600;19.242;2023-07-22T08:47:59;5.20;;;2.47;;
62933;SDS011;49038;47.600;19.242;2023-07-22T08:51:06;3.08;;;2.15;;
62933;SDS011;49038;47.600;19.242;2023-07-22T08:54:18;2.65;;;1.98;;
62933;SDS011;49038;47.600;19.242;2023-07-22T08:57:20;2.97;;;2.28;;
62933;SDS011;49038;47.600;19.242;2023-07-22T09:00:23;3.10;;;1.95;;
62933;SDS011;49038;47.600;19.242;2023-07-22T09:03:26;3.55;;;1.90;;
62933;SDS011;49038;47.600;19.242;2023-07-22T09:06:28;2.47;;;1.60;;
62933;SDS011;49038;47.600;19.242;2023-07-22T09:09:31;2.83;;;2.03;;
62933;SDS011;49038;47.600;19.242;2023-07-22T09:12:34;2.20;;;1.75;;
62933;SDS011;49038;47.600;19.242;2023-07-22T09:15:42;2.42;;;1.50;;
62933;SDS011;49038;47.600;19.242;2023-07-22T09:18:44;1.62;;;1.52;;
62933;SDS011;49038;47.600;19.242;2023-07-22T09:21:46;3.03;;;1.65;;
62933;SDS011;49038;47.600;19.242;2023-07-22T09:24:49;3.20;;;1.30;;
62933;SDS011;49038;47.600;19.242;2023-07-22T09:27:52;2.00;;;1.60;;
62933;SDS011;49038;47.600;19.242;2023-07-22T09:31:01;5.97;;;1.90;;
62933;SDS011;49038;47.600;19.242;2023-07-22T09:34:10;1.95;;;1.73;;
62933;SDS011;49038;47.600;19.242;2023-07-22T09:37:13;2.00;;;1.50;;
62933;SDS011;49038;47.600;19.242;2023-07-22T09:40:16;2.45;;;1.75;;
62933;SDS011;49038;47.600;19.242;2023-07-22T09:43:20;1.98;;;1.77;;
62933;SDS011;49038;47.600;19.242;2023-07-22T09:46:25;17.80;;;2.37;;
62933;SDS011;49038;47.600;19.242;2023-07-22T09:49:33;3.33;;;1.97;;
62933;SDS011;49038;47.600;19.242;2023-07-22T09:52:49;3.42;;;1.98;;
62933;SDS011;49038;47.600;19.242;2023-07-22T09:55:55;2.05;;;1.52;;
62933;SDS011;49038;47.600;19.242;2023-07-22T09:59:05;2.10;;;1.70;;
62933;SDS011;49038;47.600;19.242;2023-07-22T10:02:08;3.10;;;1.55;;
62933;SDS011;49038;47.600;19.242;2023-07-22T10:05:14;6.15;;;1.65;;
62933;SDS011;49038;47.600;19.242;2023-07-22T10:08:18;2.05;;;1.80;;
62933;SDS011;49038;47.600;19.242;2023-07-22T10:11:22;2.03;;;1.60;;
62933;SDS011;49038;47.600;19.242;2023-07-22T10:14:25;2.10;;;1.55;;
62933;SDS011;49038;47.600;19.242;2023-07-22T10:17:32;2.87;;;1.40;;
62933;SDS011;49038;47.600;19.242;2023-07-22T10:20:35;1.58;;;1.40;;
62933;SDS011;49038;47.600;19.242;2023-07-22T10:23:39;2.92;;;1.35;;
62933;SDS011;49038;47.600;19.242;2023-07-22T10:26:42;1.60;;;1.30;;
62933;SDS011;49038;47.600;19.242;2023-07-22T10:29:49;1.70;;;1.40;;
62933;SDS011;49038;47.600;19.242;2023-07-22T10:32:51;1.52;;;1.10;;
62933;SDS011;49038;47.600;19.242;2023-07-22T10:36:01;2.15;;;1.45;;
62933;SDS011;49038;47.600;19.242;2023-07-22T10:39:07;2.17;;;1.50;;
62933;SDS011;49038;47.600;19.242;2023-07-22T10:42:16;1.50;;;1.10;;
62933;SDS011;49038;47.600;19.242;2023-07-22T10:45:30;1.40;;;1.10;;
62933;SDS011;49038;47.600;19.242;2023-07-22T10:48:35;1.80;;;1.20;;
62933;SDS011;49038;47.600;19.242;2023-07-22T10:51:39;1.58;;;1.20;;
62933;SDS011;49038;47.600;19.242;2023-07-22T10:54:42;1.67;;;1.17;;
62933;SDS011;49038;47.600;19.242;2023-07-22T10:57:48;1.62;;;1.10;;
62933;SDS011;49038;47.600;19.242;2023-07-22T11:00:55;2.33;;;1.17;;
62933;SDS011;49038;47.600;19.242;2023-07-22T11:07:52;1.90;;;0.93;;
62933;SDS011;49038;47.600;19.242;2023-07-22T11:11:05;1.10;;;0.80;;
62933;SDS011;49038;47.600;19.242;2023-07-22T11:17:30;0.98;;;0.70;;
62933;SDS011;49038;47.600;19.242;2023-07-22T11:20:33;0.93;;;0.80;;
62933;SDS011;49038;47.600;19.242;2023-07-22T11:23:37;4.35;;;1.02;;
62933;SDS011;49038;47.600;19.242;2023-07-22T11:26:39;1.92;;;1.10;;
62933;SDS011;49038;47.600;19.242;2023-07-22T11:29:44;1.20;;;0.95;;
62933;SDS011;49038;47.600;19.242;2023-07-22T11:32:46;2.25;;;0.80;;
62933;SDS011;49038;47.600;19.242;2023-07-22T11:35:52;1.20;;;0.85;;
62933;SDS011;49038;47.600;19.242;2023-07-22T11:39:16;1.20;;;0.80;;
62933;SDS011;49038;47.600;19.242;2023-07-22T11:42:18;1.70;;;0.88;;
62933;SDS011;49038;47.600;19.242;2023-07-22T11:45:20;0.93;;;0.60;;
62933;SDS011;49038;47.600;19.242;2023-07-22T11:48:23;1.73;;;1.05;;
62933;SDS011;49038;47.600;19.242;2023-07-22T11:51:25;2.50;;;0.73;;
62933;SDS011;49038;47.600;19.242;2023-07-22T11:54:28;2.25;;;0.80;;
62933;SDS011;49038;47.600;19.242;2023-07-22T11:57:31;0.80;;;0.70;;
62933;SDS011;49038;47.600;19.242;2023-07-22T12:00:33;2.97;;;0.93;;
62933;SDS011;49038;47.600;19.242;2023-07-22T12:03:36;1.15;;;0.80;;
62933;SDS011;49038;47.600;19.242;2023-07-22T12:06:39;0.95;;;0.77;;
62933;SDS011;49038;47.600;19.242;2023-07-22T12:09:41;0.90;;;0.70;;
62933;SDS011;49038;47.600;19.242;2023-07-22T12:12:50;1.20;;;0.75;;
62933;SDS011;49038;47.600;19.242;2023-07-22T12:16:03;0.90;;;0.80;;
62933;SDS011;49038;47.600;19.242;2023-07-22T12:19:07;0.73;;;0.70;;
62933;SDS011;49038;47.600;19.242;2023-07-22T12:22:10;0.90;;;0.70;;
62933;SDS011;49038;47.600;19.242;2023-07-22T12:25:13;0.70;;;0.60;;
62933;SDS011;49038;47.600;19.242;2023-07-22T12:28:15;0.80;;;0.80;;
62933;SDS011;49038;47.600;19.242;2023-07-22T12:31:17;1.20;;;0.75;;
62933;SDS011;49038;47.600;19.242;2023-07-22T12:34:20;0.70;;;0.70;;
62933;SDS011;49038;47.600;19.242;2023-07-22T12:37:22;0.80;;;0.75;;
62933;SDS011;49038;47.600;19.242;2023-07-22T12:40:25;0.93;;;0.68;;
62933;SDS011;49038;47.600;19.242;2023-07-22T12:43:27;0.65;;;0.65;;
62933;SDS011;49038;47.600;19.242;2023-07-22T12:46:30;0.80;;;0.70;;
62933;SDS011;49038;47.600;19.242;2023-07-22T12:49:32;1.20;;;0.70;;
62933;SDS011;49038;47.600;19.242;2023-07-22T12:52:35;0.80;;;0.77;;
62933;SDS011;49038;47.600;19.242;2023-07-22T12:55:38;1.23;;;0.75;;
62933;SDS011;49038;47.600;19.242;2023-07-22T12:58:41;1.25;;;0.80;;
62933;SDS011;49038;47.600;19.242;2023-07-22T13:01:43;0.65;;;0.52;;
62933;SDS011;49038;47.600;19.242;2023-07-22T13:04:46;0.75;;;0.75;;
62933;SDS011;49038;47.600;19.242;2023-07-22T13:07:48;0.68;;;0.68;;
62933;SDS011;49038;47.600;19.242;2023-07-22T13:10:51;4.40;;;0.90;;
62933;SDS011;49038;47.600;19.242;2023-07-22T13:13:53;0.90;;;0.73;;
62933;SDS011;49038;47.600;19.242;2023-07-22T13:16:56;0.77;;;0.70;;
62933;SDS011;49038;47.600;19.242;2023-07-22T13:19:58;1.17;;;0.95;;
62933;SDS011;49038;47.600;19.242;2023-07-22T13:23:00;1.60;;;0.88;;
62933;SDS011;49038;47.600;19.242;2023-07-22T13:26:03;1.08;;;0.90;;
62933;SDS011;49038;47.600;19.242;2023-07-22T13:29:05;1.17;;;0.80;;
62933;SDS011;49038;47.600;19.242;2023-07-22T13:32:07;1.20;;;0.77;;
62933;SDS011;49038;47.600;19.242;2023-07-22T13:35:10;0.88;;;0.80;;
62933;SDS011;49038;47.600;19.242;2023-07-22T13:38:12;0.62;;;0.60;;
62933;SDS011;49038;47.600;19.242;2023-07-22T13:41:15;0.88;;;0.70;;
62933;SDS011;49038;47.600;19.242;2023-07-22T13:44:17;1.10;;;1.00;;
62933;SDS011;49038;47.600;19.242;2023-07-22T13:47:19;0.90;;;0.80;;
62933;SDS011;49038;47.600;19.242;2023-07-22T13:50:22;0.98;;;0.80;;
62933;SDS011;49038;47.600;19.242;2023-07-22T13:53:24;0.93;;;0.80;;
62933;SDS011;49038;47.600;19.242;2023-07-22T13:56:26;0.95;;;0.70;;
62933;SDS011;49038;47.600;19.242;2023-07-22T13:59:29;4.93;;;1.08;;
62933;SDS011;49038;47.600;19.242;2023-07-22T14:02:31;1.10;;;0.65;;
62933;SDS011;49038;47.600;19.242;2023-07-22T14:05:35;0.98;;;0.80;;
62933;SDS011;49038;47.600;19.242;2023-07-22T14:08:37;1.12;;;0.90;;
62933;SDS011;49038;47.600;19.242;2023-07-22T14:11:41;0.60;;;0.60;;
62933;SDS011;49038;47.600;19.242;2023-07-22T14:14:43;10.10;;;1.15;;
62933;SDS011;49038;47.600;19.242;2023-07-22T14:17:46;1.00;;;0.88;;
62933;SDS011;49038;47.600;19.242;2023-07-22T14:20:48;3.60;;;1.33;;
62933;SDS011;49038;47.600;19.242;2023-07-22T14:23:51;0.90;;;0.60;;
62933;SDS011;49038;47.600;19.242;2023-07-22T14:26:53;0.88;;;0.80;;
62933;SDS011;49038;47.600;19.242;2023-07-22T14:29:56;0.85;;;0.70;;
62933;SDS011;49038;47.600;19.242;2023-07-22T14:32:58;2.47;;;0.80;;
62933;SDS011;49038;47.600;19.242;2023-07-22T14:36:01;0.80;;;0.70;;
62933;SDS011;49038;47.600;19.242;2023-07-22T14:39:03;1.15;;;0.80;;
62933;SDS011;49038;47.600;19.242;2023-07-22T14:42:06;1.17;;;0.88;;
62933;SDS011;49038;47.600;19.242;2023-07-22T14:45:09;0.98;;;0.88;;
62933;SDS011;49038;47.600;19.242;2023-07-22T14:48:11;2.33;;;0.82;;
62933;SDS011;49038;47.600;19.242;2023-07-22T14:51:14;1.12;;;0.93;;
62933;SDS011;49038;47.600;19.242;2023-07-22T14:54:16;1.12;;;1.02;;
62933;SDS011;49038;47.600;19.242;2023-07-22T14:57:18;0.80;;;0.80;;
62933;SDS011;49038;47.600;19.242;2023-07-22T15:00:20;1.05;;;0.70;;
62933;SDS011;49038;47.600;19.242;2023-07-22T15:03:23;0.90;;;0.80;;
62933;SDS011;49038;47.600;19.242;2023-07-22T15:06:25;1.25;;;0.95;;
62933;SDS011;49038;47.600;19.242;2023-07-22T15:09:27;1.10;;;0.93;;
62933;SDS011;49038;47.600;19.242;2023-07-22T15:12:30;0.90;;;0.65;;
62933;SDS011;49038;47.600;19.242;2023-07-22T15:15:32;1.20;;;0.90;;
62933;SDS011;49038;47.600;19.242;2023-07-22T15:18:35;0.88;;;0.80;;
62933;SDS011;49038;47.600;19.242;2023-07-22T15:21:37;1.50;;;0.93;;
62933;SDS011;49038;47.600;19.242;2023-07-22T15:24:39;0.80;;;0.80;;
62933;SDS011;49038;47.600;19.242;2023-07-22T15:27:42;0.95;;;0.85;;
62933;SDS011;49038;47.600;19.242;2023-07-22T15:30:45;1.58;;;0.90;;
62933;SDS011;49038;47.600;19.242;2023-07-22T15:33:49;1.55;;;0.90;;
62933;SDS011;49038;47.600;19.242;2023-07-22T15:36:51;0.80;;;0.75;;
62933;SDS011;49038;47.600;19.242;2023-07-22T15:39:53;0.85;;;0.77;;
62933;SDS011;49038;47.600;19.242;2023-07-22T15:42:56;1.75;;;0.90;;
62933;SDS011;49038;47.600;19.242;2023-07-22T15:45:58;1.00;;;0.70;;
62933;SDS011;49038;47.600;19.242;2023-07-22T15:49:03;0.80;;;0.70;;
62933;SDS011;49038;47.600;19.242;2023-07-22T15:52:05;1.37;;;1.15;;
62933;SDS011;49038;47.600;19.242;2023-07-22T15:55:08;1.70;;;0.98;;
62933;SDS011;49038;47.600;19.242;2023-07-22T15:58:10;1.30;;;0.98;;
62933;SDS011;49038;47.600;19.242;2023-07-22T16:01:13;0.98;;;0.70;;
62933;SDS011;49038;47.600;19.242;2023-07-22T16:04:15;1.60;;;0.90;;
62933;SDS011;49038;47.600;19.242;2023-07-22T16:07:17;1.33;;;1.10;;
62933;SDS011;49038;47.600;19.242;2023-07-22T16:10:20;2.17;;;1.45;;
62933;SDS011;49038;47.600;19.242;2023-07-22T16:13:24;1.23;;;1.00;;
62933;SDS011;49038;47.600;19.242;2023-07-22T16:16:26;1.00;;;0.90;;
62933;SDS011;49038;47.600;19.242;2023-07-22T16:19:29;1.10;;;1.00;;
62933;SDS011;49038;47.600;19.242;2023-07-22T16:22:31;1.05;;;0.93;;
62933;SDS011;49038;47.600;19.242;2023-07-22T16:25:36;1.15;;;1.00;;
62933;SDS011;49038;47.600;19.242;2023-07-22T16:28:38;2.67;;;0.80;;
62933;SDS011;49038;47.600;19.242;2023-07-22T16:31:41;1.45;;;0.98;;
62933;SDS011;49038;47.600;19.242;2023-07-22T16:34:43;1.48;;;1.02;;
62933;SDS011;49038;47.600;19.242;2023-07-22T16:37:45;0.90;;;0.80;;
62933;SDS011;49038;47.600;19.242;2023-07-22T16:40:48;1.40;;;1.05;;
62933;SDS011;49038;47.600;19.242;2023-07-22T16:43:50;1.40;;;0.80;;
62933;SDS011;49038;47.600;19.242;2023-07-22T16:46:52;1.80;;;1.00;;
62933;SDS011;49038;47.600;19.242;2023-07-22T16:49:55;1.60;;;1.10;;
62933;SDS011;49038;47.600;19.242;2023-07-22T16:52:57;1.92;;;1.02;;
62933;SDS011;49038;47.600;19.242;2023-07-22T16:56:00;1.30;;;1.00;;
62933;SDS011;49038;47.600;19.242;2023-07-22T16:59:03;1.77;;;0.90;;
62933;SDS011;49038;47.600;19.242;2023-07-22T17:02:06;1.77;;;0.90;;
62933;SDS011;49038;47.600;19.242;2023-07-22T17:05:08;1.40;;;0.90;;
62933;SDS011;49038;47.600;19.242;2023-07-22T17:08:11;1.10;;;1.00;;
62933;SDS011;49038;47.600;19.242;2023-07-22T17:11:13;2.97;;;0.90;;
62933;SDS011;49038;47.600;19.242;2023-07-22T17:14:16;2.45;;;1.10;;
62933;SDS011;49038;47.600;19.242;2023-07-22T17:17:18;1.00;;;0.73;;
62933;SDS011;49038;47.600;19.242;2023-07-22T17:20:20;1.80;;;1.10;;
62933;SDS011;49038;47.600;19.242;2023-07-22T17:23:23;1.40;;;1.00;;
62933;SDS011;49038;47.600;19.242;2023-07-22T17:26:25;5.18;;;1.48;;
62933;SDS011;49038;47.600;19.242;2023-07-22T17:29:27;1.60;;;0.90;;
62933;SDS011;49038;47.600;19.242;2023-07-22T17:32:30;1.58;;;1.02;;
62933;SDS011;49038;47.600;19.242;2023-07-22T17:35:32;4.15;;;1.17;;
62933;SDS011;49038;47.600;19.242;2023-07-22T17:38:37;3.17;;;1.00;;
62933;SDS011;49038;47.600;19.242;2023-07-22T17:41:39;1.10;;;0.90;;
62933;SDS011;49038;47.600;19.242;2023-07-22T17:44:43;1.62;;;0.93;;
62933;SDS011;49038;47.600;19.242;2023-07-22T17:47:45;1.50;;;0.80;;
62933;SDS011;49038;47.600;19.242;2023-07-22T17:50:48;1.48;;;1.17;;
62933;SDS011;49038;47.600;19.242;2023-07-22T17:53:51;3.65;;;1.00;;
62933;SDS011;49038;47.600;19.242;2023-07-22T17:56:53;2.33;;;1.10;;
62933;SDS011;49038;47.600;19.242;2023-07-22T17:59:56;2.72;;;1.67;;
62933;SDS011;49038;47.600;19.242;2023-07-22T18:02:58;1.65;;;1.10;;
62933;SDS011;49038;47.600;19.242;2023-07-22T18:06:00;2.30;;;1.20;;
62933;SDS011;49038;47.600;19.242;2023-07-22T18:09:03;1.10;;;0.95;;
62933;SDS011;49038;47.600;19.242;2023-07-22T18:12:05;1.42;;;1.30;;